sensor_id;sensor_type;location;lat;lon;timestamp;temperature;humidity
78550;DHT22;68091;52.130;5.570;2023-07-29T00:00:36;17.50;99.90
78550;DHT22;68091;52.130;5.570;2023-07-29T00:03:01;17.50;99.90
78550;DHT22;68091;52.130;5.570;2023-07-29T00:05:27;17.50;99.90
78550;DHT22;68091;52.130;5.570;2023-07-29T00:07:52;17.50;99.90
78550;DHT22;68091;52.130;5.570;2023-07-29T00:10:18;17.50;99.90
78550;DHT22;68091;52.130;5.570;2023-07-29T00:12:43;17.50;99.90
78550;DHT22;68091;52.130;5.570;2023-07-29T00:15:11;17.40;99.90
78550;DHT22;68091;52.130;5.570;2023-07-29T00:17:37;17.40;99.90
78550;DHT22;68091;52.130;5.570;2023-07-29T00:20:03;17.40;99.90
78550;DHT22;68091;52.130;5.570;2023-07-29T00:22:28;17.40;99.90
78550;DHT22;68091;52.130;5.570;2023-07-29T00:24:54;17.30;99.90
78550;DHT22;68091;52.130;5.570;2023-07-29T00:27:20;17.30;99.90
78550;DHT22;68091;52.130;5.570;2023-07-29T00:29:46;17.30;99.90
78550;DHT22;68091;52.130;5.570;2023-07-29T00:32:12;17.30;99.90
78550;DHT22;68091;52.130;5.570;2023-07-29T00:34:37;17.20;99.90
78550;DHT22;68091;52.130;5.570;2023-07-29T00:37:03;17.20;99.90
78550;DHT22;68091;52.130;5.570;2023-07-29T00:39:31;17.10;99.90
78550;DHT22;68091;52.130;5.570;2023-07-29T00:41:57;17.10;99.90
78550;DHT22;68091;52.130;5.570;2023-07-29T00:44:22;17.00;99.90
78550;DHT22;68091;52.130;5.570;2023-07-29T00:46:48;16.90;99.90
78550;DHT22;68091;52.130;5.570;2023-07-29T00:49:15;16.80;99.90
78550;DHT22;68091;52.130;5.570;2023-07-29T00:51:40;16.80;99.90
78550;DHT22;68091;52.130;5.570;2023-07-29T00:54:06;16.90;99.90
78550;DHT22;68091;52.130;5.570;2023-07-29T00:56:34;17.00;99.90
78550;DHT22;68091;52.130;5.570;2023-07-29T00:59:01;17.10;99.90
78550;DHT22;68091;52.130;5.570;2023-07-29T01:01:27;17.20;99.90
78550;DHT22;68091;52.130;5.570;2023-07-29T01:03:53;17.20;99.90
78550;DHT22;68091;52.130;5.570;2023-07-29T01:09:00;17.30;99.90
78550;DHT22;68091;52.130;5.570;2023-07-29T01:11:51;17.30;99.90
78550;DHT22;68091;52.130;5.570;2023-07-29T01:14:26;17.20;99.90
78550;DHT22;68091;52.130;5.570;2023-07-29T01:17:00;17.20;99.90
78550;DHT22;68091;52.130;5.570;2023-07-29T01:19:41;17.20;99.90
78550;DHT22;68091;52.130;5.570;2023-07-29T01:22:07;17.10;99.90
78550;DHT22;68091;52.130;5.570;2023-07-29T01:24:33;17.10;99.90
78550;DHT22;68091;52.130;5.570;2023-07-29T01:26:59;17.10;99.90
78550;DHT22;68091;52.130;5.570;2023-07-29T01:29:27;17.10;99.90
78550;DHT22;68091;52.130;5.570;2023-07-29T01:31:53;17.10;99.90
78550;DHT22;68091;52.130;5.570;2023-07-29T01:34:22;17.10;99.90
78550;DHT22;68091;52.130;5.570;2023-07-29T01:36:50;17.10;99.90
78550;DHT22;68091;52.130;5.570;2023-07-29T01:39:16;17.10;99.90
78550;DHT22;68091;52.130;5.570;2023-07-29T01:41:43;17.20;99.90
78550;DHT22;68091;52.130;5.570;2023-07-29T01:44:09;17.20;99.90
78550;DHT22;68091;52.130;5.570;2023-07-29T01:46:35;17.20;99.90
78550;DHT22;68091;52.130;5.570;2023-07-29T01:49:01;17.20;99.90
78550;DHT22;68091;52.130;5.570;2023-07-29T01:51:27;17.20;99.90
78550;DHT22;68091;52.130;5.570;2023-07-29T01:53:55;17.20;99.90
78550;DHT22;68091;52.130;5.570;2023-07-29T01:56:21;17.30;99.90
78550;DHT22;68091;52.130;5.570;2023-07-29T01:58:46;17.30;99.90
78550;DHT22;68091;52.130;5.570;2023-07-29T02:01:12;17.30;99.90
78550;DHT22;68091;52.130;5.570;2023-07-29T02:03:38;17.30;99.90
78550;DHT22;68091;52.130;5.570;2023-07-29T02:06:03;17.30;99.90
78550;DHT22;68091;52.130;5.570;2023-07-29T02:08:29;17.30;99.90
78550;DHT22;68091;52.130;5.570;2023-07-29T02:10:54;17.30;99.90
78550;DHT22;68091;52.130;5.570;2023-07-29T02:13:20;17.30;99.90
78550;DHT22;68091;52.130;5.570;2023-07-29T02:15:45;17.30;99.90
78550;DHT22;68091;52.130;5.570;2023-07-29T02:18:13;17.30;99.90
78550;DHT22;68091;52.130;5.570;2023-07-29T02:20:39;17.30;99.90
78550;DHT22;68091;52.130;5.570;2023-07-29T02:23:05;17.30;99.90
78550;DHT22;68091;52.130;5.570;2023-07-29T02:25:30;17.30;99.90
78550;DHT22;68091;52.130;5.570;2023-07-29T02:27:56;17.30;99.90
78550;DHT22;68091;52.130;5.570;2023-07-29T02:30:21;17.20;99.90
78550;DHT22;68091;52.130;5.570;2023-07-29T02:32:47;17.20;99.90
78550;DHT22;68091;52.130;5.570;2023-07-29T02:35:12;17.20;99.90
78550;DHT22;68091;52.130;5.570;2023-07-29T02:37:38;17.10;99.90
78550;DHT22;68091;52.130;5.570;2023-07-29T02:40:03;17.10;99.90
78550;DHT22;68091;52.130;5.570;2023-07-29T02:42:29;17.10;99.90
78550;DHT22;68091;52.130;5.570;2023-07-29T02:44:55;17.10;99.90
78550;DHT22;68091;52.130;5.570;2023-07-29T02:47:21;17.10;99.90
78550;DHT22;68091;52.130;5.570;2023-07-29T02:49:46;17.00;99.90
78550;DHT22;68091;52.130;5.570;2023-07-29T02:52:19;17.00;99.90
78550;DHT22;68091;52.130;5.570;2023-07-29T02:54:45;17.00;99.90
78550;DHT22;68091;52.130;5.570;2023-07-29T02:57:10;17.00;99.90
78550;DHT22;68091;52.130;5.570;2023-07-29T02:59:39;17.00;99.90
78550;DHT22;68091;52.130;5.570;2023-07-29T03:02:13;17.00;99.90
78550;DHT22;68091;52.130;5.570;2023-07-29T03:04:41;16.90;99.90
78550;DHT22;68091;52.130;5.570;2023-07-29T03:07:07;16.90;99.90
78550;DHT22;68091;52.130;5.570;2023-07-29T03:09:32;16.90;99.90
78550;DHT22;68091;52.130;5.570;2023-07-29T03:11:58;16.90;99.90
78550;DHT22;68091;52.130;5.570;2023-07-29T03:14:24;16.90;99.90
78550;DHT22;68091;52.130;5.570;2023-07-29T03:16:50;16.90;99.90
78550;DHT22;68091;52.130;5.570;2023-07-29T03:19:15;16.80;99.90
78550;DHT22;68091;52.130;5.570;2023-07-29T03:21:41;16.80;99.90
78550;DHT22;68091;52.130;5.570;2023-07-29T03:24:07;16.80;99.90
78550;DHT22;68091;52.130;5.570;2023-07-29T03:26:32;16.80;99.90
78550;DHT22;68091;52.130;5.570;2023-07-29T03:28:58;16.80;99.90
78550;DHT22;68091;52.130;5.570;2023-07-29T03:31:23;16.80;99.90
78550;DHT22;68091;52.130;5.570;2023-07-29T03:33:49;16.80;99.90
78550;DHT22;68091;52.130;5.570;2023-07-29T03:36:14;16.80;99.90
78550;DHT22;68091;52.130;5.570;2023-07-29T03:38:40;16.70;99.90
78550;DHT22;68091;52.130;5.570;2023-07-29T03:41:07;16.80;99.90
78550;DHT22;68091;52.130;5.570;2023-07-29T03:43:33;16.80;99.90
78550;DHT22;68091;52.130;5.570;2023-07-29T03:45:58;16.70;99.90
78550;DHT22;68091;52.130;5.570;2023-07-29T03:48:24;16.70;99.90
78550;DHT22;68091;52.130;5.570;2023-07-29T03:50:49;16.70;99.90
78550;DHT22;68091;52.130;5.570;2023-07-29T03:53:17;16.70;99.90
78550;DHT22;68091;52.130;5.570;2023-07-29T03:55:43;16.70;99.90
78550;DHT22;68091;52.130;5.570;2023-07-29T03:58:09;16.70;99.90
78550;DHT22;68091;52.130;5.570;2023-07-29T04:00:35;16.70;99.90
78550;DHT22;68091;52.130;5.570;2023-07-29T04:03:00;16.60;99.90
78550;DHT22;68091;52.130;5.570;2023-07-29T04:05:26;16.70;99.90
78550;DHT22;68091;52.130;5.570;2023-07-29T04:07:54;16.60;99.90
78550;DHT22;68091;52.130;5.570;2023-07-29T04:10:20;16.60;99.90
78550;DHT22;68091;52.130;5.570;2023-07-29T04:12:46;16.60;99.90
78550;DHT22;68091;52.130;5.570;2023-07-29T04:15:11;16.60;99.90
78550;DHT22;68091;52.130;5.570;2023-07-29T04:17:37;16.60;99.90
78550;DHT22;68091;52.130;5.570;2023-07-29T04:20:06;16.50;99.90
78550;DHT22;68091;52.130;5.570;2023-07-29T04:22:32;16.50;99.90
78550;DHT22;68091;52.130;5.570;2023-07-29T04:24:58;16.50;99.90
78550;DHT22;68091;52.130;5.570;2023-07-29T04:27:24;16.50;99.90
78550;DHT22;68091;52.130;5.570;2023-07-29T04:29:50;16.60;99.90
78550;DHT22;68091;52.130;5.570;2023-07-29T04:32:15;16.50;99.90
78550;DHT22;68091;52.130;5.570;2023-07-29T04:34:41;16.50;99.90
78550;DHT22;68091;52.130;5.570;2023-07-29T04:37:06;16.50;99.90
78550;DHT22;68091;52.130;5.570;2023-07-29T04:39:32;16.60;99.90
78550;DHT22;68091;52.130;5.570;2023-07-29T04:41:58;16.50;99.90
78550;DHT22;68091;52.130;5.570;2023-07-29T04:44:24;16.50;99.90
78550;DHT22;68091;52.130;5.570;2023-07-29T04:46:50;16.60;99.90
78550;DHT22;68091;52.130;5.570;2023-07-29T04:49:15;16.60;99.90
78550;DHT22;68091;52.130;5.570;2023-07-29T04:51:41;16.60;99.90
78550;DHT22;68091;52.130;5.570;2023-07-29T04:54:06;16.60;99.90
78550;DHT22;68091;52.130;5.570;2023-07-29T04:56:32;16.60;99.90
78550;DHT22;68091;52.130;5.570;2023-07-29T04:58:57;16.60;99.90
78550;DHT22;68091;52.130;5.570;2023-07-29T05:01:26;16.60;99.90
78550;DHT22;68091;52.130;5.570;2023-07-29T05:03:51;16.50;99.90
78550;DHT22;68091;52.130;5.570;2023-07-29T05:06:17;16.50;99.90
78550;DHT22;68091;52.130;5.570;2023-07-29T05:08:42;16.50;99.90
78550;DHT22;68091;52.130;5.570;2023-07-29T05:11:11;16.50;99.90
78550;DHT22;68091;52.130;5.570;2023-07-29T05:13:37;16.60;99.90
78550;DHT22;68091;52.130;5.570;2023-07-29T05:16:09;16.60;99.90
78550;DHT22;68091;52.130;5.570;2023-07-29T05:18:35;16.70;99.90
78550;DHT22;68091;52.130;5.570;2023-07-29T05:21:00;16.70;99.90
78550;DHT22;68091;52.130;5.570;2023-07-29T05:23:26;16.80;99.90
78550;DHT22;68091;52.130;5.570;2023-07-29T05:25:51;16.80;99.90
78550;DHT22;68091;52.130;5.570;2023-07-29T05:28:17;16.80;99.90
78550;DHT22;68091;52.130;5.570;2023-07-29T05:30:43;16.80;99.90
78550;DHT22;68091;52.130;5.570;2023-07-29T05:33:09;16.90;99.90
78550;DHT22;68091;52.130;5.570;2023-07-29T05:35:34;16.80;99.90
78550;DHT22;68091;52.130;5.570;2023-07-29T05:38:00;16.90;99.90
78550;DHT22;68091;52.130;5.570;2023-07-29T05:40:28;16.90;99.90
78550;DHT22;68091;52.130;5.570;2023-07-29T05:42:54;16.90;99.90
78550;DHT22;68091;52.130;5.570;2023-07-29T05:45:19;17.00;99.90
78550;DHT22;68091;52.130;5.570;2023-07-29T05:47:45;17.00;99.90
78550;DHT22;68091;52.130;5.570;2023-07-29T05:50:11;17.00;99.90
78550;DHT22;68091;52.130;5.570;2023-07-29T05:52:36;17.00;99.90
78550;DHT22;68091;52.130;5.570;2023-07-29T05:55:02;17.10;99.90
78550;DHT22;68091;52.130;5.570;2023-07-29T05:57:27;17.10;99.90
78550;DHT22;68091;52.130;5.570;2023-07-29T05:59:53;17.20;99.90
78550;DHT22;68091;52.130;5.570;2023-07-29T06:02:18;17.30;99.90
78550;DHT22;68091;52.130;5.570;2023-07-29T06:04:44;17.40;99.90
78550;DHT22;68091;52.130;5.570;2023-07-29T06:07:10;17.40;99.90
78550;DHT22;68091;52.130;5.570;2023-07-29T06:09:35;17.40;99.90
78550;DHT22;68091;52.130;5.570;2023-07-29T06:12:01;17.50;99.90
78550;DHT22;68091;52.130;5.570;2023-07-29T06:14:26;17.50;99.90
78550;DHT22;68091;52.130;5.570;2023-07-29T06:16:52;17.60;99.90
78550;DHT22;68091;52.130;5.570;2023-07-29T06:19:18;17.60;99.90
78550;DHT22;68091;52.130;5.570;2023-07-29T06:21:43;17.70;99.90
78550;DHT22;68091;52.130;5.570;2023-07-29T06:24:09;17.70;99.90
78550;DHT22;68091;52.130;5.570;2023-07-29T06:26:34;17.80;99.90
78550;DHT22;68091;52.130;5.570;2023-07-29T06:29:03;17.90;99.90
78550;DHT22;68091;52.130;5.570;2023-07-29T06:31:29;18.20;99.90
78550;DHT22;68091;52.130;5.570;2023-07-29T06:33:55;18.20;99.90
78550;DHT22;68091;52.130;5.570;2023-07-29T06:36:20;18.20;99.90
78550;DHT22;68091;52.130;5.570;2023-07-29T06:38:48;18.40;99.90
78550;DHT22;68091;52.130;5.570;2023-07-29T06:41:14;18.60;99.90
78550;DHT22;68091;52.130;5.570;2023-07-29T06:43:39;18.70;99.90
78550;DHT22;68091;52.130;5.570;2023-07-29T06:46:14;18.70;99.90
78550;DHT22;68091;52.130;5.570;2023-07-29T06:48:39;18.70;99.90
78550;DHT22;68091;52.130;5.570;2023-07-29T06:51:05;19.00;99.90
78550;DHT22;68091;52.130;5.570;2023-07-29T06:53:30;19.10;99.90
78550;DHT22;68091;52.130;5.570;2023-07-29T06:55:56;18.90;99.90
78550;DHT22;68091;52.130;5.570;2023-07-29T06:58:22;18.90;99.90
78550;DHT22;68091;52.130;5.570;2023-07-29T07:00:47;18.80;99.90
78550;DHT22;68091;52.130;5.570;2023-07-29T07:03:13;18.80;99.90
78550;DHT22;68091;52.130;5.570;2023-07-29T07:05:39;18.80;99.90
78550;DHT22;68091;52.130;5.570;2023-07-29T07:08:04;19.00;99.90
78550;DHT22;68091;52.130;5.570;2023-07-29T07:10:30;19.20;99.90
78550;DHT22;68091;52.130;5.570;2023-07-29T07:12:55;19.20;99.90
78550;DHT22;68091;52.130;5.570;2023-07-29T07:15:21;19.10;99.90
78550;DHT22;68091;52.130;5.570;2023-07-29T07:17:46;19.10;99.90
78550;DHT22;68091;52.130;5.570;2023-07-29T07:20:12;19.10;99.90
78550;DHT22;68091;52.130;5.570;2023-07-29T07:22:38;19.10;99.90
78550;DHT22;68091;52.130;5.570;2023-07-29T07:25:07;19.00;99.90
78550;DHT22;68091;52.130;5.570;2023-07-29T07:27:33;18.90;99.90
78550;DHT22;68091;52.130;5.570;2023-07-29T07:29:58;18.90;99.90
78550;DHT22;68091;52.130;5.570;2023-07-29T07:32:24;18.90;99.90
78550;DHT22;68091;52.130;5.570;2023-07-29T07:34:50;18.90;99.90
78550;DHT22;68091;52.130;5.570;2023-07-29T07:37:15;18.90;99.90
78550;DHT22;68091;52.130;5.570;2023-07-29T07:39:44;18.90;99.90
78550;DHT22;68091;52.130;5.570;2023-07-29T07:42:09;19.00;99.90
78550;DHT22;68091;52.130;5.570;2023-07-29T07:44:35;18.90;99.90
78550;DHT22;68091;52.130;5.570;2023-07-29T07:47:00;19.00;99.90
78550;DHT22;68091;52.130;5.570;2023-07-29T07:49:26;19.30;99.90
78550;DHT22;68091;52.130;5.570;2023-07-29T07:51:52;19.50;99.90
78550;DHT22;68091;52.130;5.570;2023-07-29T07:54:17;19.50;99.90
78550;DHT22;68091;52.130;5.570;2023-07-29T07:56:43;19.50;99.90
78550;DHT22;68091;52.130;5.570;2023-07-29T07:59:09;19.50;99.90
78550;DHT22;68091;52.130;5.570;2023-07-29T08:01:35;19.30;99.90
78550;DHT22;68091;52.130;5.570;2023-07-29T08:04:01;19.30;99.90
78550;DHT22;68091;52.130;5.570;2023-07-29T08:06:27;19.40;99.90
78550;DHT22;68091;52.130;5.570;2023-07-29T08:08:53;19.60;99.90
78550;DHT22;68091;52.130;5.570;2023-07-29T08:11:21;19.70;99.90
78550;DHT22;68091;52.130;5.570;2023-07-29T08:13:47;19.90;99.90
78550;DHT22;68091;52.130;5.570;2023-07-29T08:16:12;19.90;99.90
78550;DHT22;68091;52.130;5.570;2023-07-29T08:18:38;19.90;99.90
78550;DHT22;68091;52.130;5.570;2023-07-29T08:21:06;20.00;99.90
78550;DHT22;68091;52.130;5.570;2023-07-29T08:23:33;20.00;99.90
78550;DHT22;68091;52.130;5.570;2023-07-29T08:26:00;20.10;99.90
78550;DHT22;68091;52.130;5.570;2023-07-29T08:28:36;20.00;99.90
78550;DHT22;68091;52.130;5.570;2023-07-29T08:31:02;20.30;99.90
78550;DHT22;68091;52.130;5.570;2023-07-29T08:33:28;20.70;99.90
78550;DHT22;68091;52.130;5.570;2023-07-29T08:35:53;20.80;99.90
78550;DHT22;68091;52.130;5.570;2023-07-29T08:38:19;20.80;99.90
78550;DHT22;68091;52.130;5.570;2023-07-29T08:40:48;21.00;99.90
78550;DHT22;68091;52.130;5.570;2023-07-29T08:43:15;21.30;99.90
78550;DHT22;68091;52.130;5.570;2023-07-29T08:45:42;21.40;99.90
78550;DHT22;68091;52.130;5.570;2023-07-29T08:48:09;21.20;99.90
78550;DHT22;68091;52.130;5.570;2023-07-29T08:50:36;20.90;99.90
78550;DHT22;68091;52.130;5.570;2023-07-29T08:53:04;20.60;99.90
78550;DHT22;68091;52.130;5.570;2023-07-29T08:55:33;20.40;99.90
78550;DHT22;68091;52.130;5.570;2023-07-29T08:57:59;20.30;99.90
78550;DHT22;68091;52.130;5.570;2023-07-29T09:00:25;20.30;99.90
78550;DHT22;68091;52.130;5.570;2023-07-29T09:02:51;20.40;99.90
78550;DHT22;68091;52.130;5.570;2023-07-29T09:05:16;20.70;99.90
78550;DHT22;68091;52.130;5.570;2023-07-29T09:07:42;20.90;99.90
78550;DHT22;68091;52.130;5.570;2023-07-29T09:10:13;21.00;99.90
78550;DHT22;68091;52.130;5.570;2023-07-29T09:12:38;21.00;99.90
78550;DHT22;68091;52.130;5.570;2023-07-29T09:15:04;21.00;99.90
78550;DHT22;68091;52.130;5.570;2023-07-29T09:17:31;20.80;99.90
78550;DHT22;68091;52.130;5.570;2023-07-29T09:19:57;20.70;99.90
78550;DHT22;68091;52.130;5.570;2023-07-29T09:22:23;20.60;99.90
78550;DHT22;68091;52.130;5.570;2023-07-29T09:24:49;20.50;99.90
78550;DHT22;68091;52.130;5.570;2023-07-29T09:27:25;20.40;99.90
78550;DHT22;68091;52.130;5.570;2023-07-29T09:29:58;20.60;99.90
78550;DHT22;68091;52.130;5.570;2023-07-29T09:32:25;21.00;99.90
78550;DHT22;68091;52.130;5.570;2023-07-29T09:34:50;21.20;99.90
78550;DHT22;68091;52.130;5.570;2023-07-29T09:37:22;21.20;99.90
78550;DHT22;68091;52.130;5.570;2023-07-29T09:39:49;21.20;99.90
78550;DHT22;68091;52.130;5.570;2023-07-29T09:42:18;21.40;99.90
78550;DHT22;68091;52.130;5.570;2023-07-29T09:44:51;21.80;99.90
78550;DHT22;68091;52.130;5.570;2023-07-29T09:47:23;21.70;99.90
78550;DHT22;68091;52.130;5.570;2023-07-29T09:49:49;21.60;99.90
78550;DHT22;68091;52.130;5.570;2023-07-29T09:52:16;21.60;99.90
78550;DHT22;68091;52.130;5.570;2023-07-29T09:54:42;21.60;99.90
78550;DHT22;68091;52.130;5.570;2023-07-29T09:57:07;21.50;99.90
78550;DHT22;68091;52.130;5.570;2023-07-29T09:59:33;21.50;99.90
78550;DHT22;68091;52.130;5.570;2023-07-29T10:01:59;21.40;99.90
78550;DHT22;68091;52.130;5.570;2023-07-29T10:04:28;21.20;99.90
78550;DHT22;68091;52.130;5.570;2023-07-29T10:06:57;21.00;99.90
78550;DHT22;68091;52.130;5.570;2023-07-29T10:09:23;20.90;99.90
78550;DHT22;68091;52.130;5.570;2023-07-29T10:11:49;20.80;99.90
78550;DHT22;68091;52.130;5.570;2023-07-29T10:14:16;20.70;99.90
78550;DHT22;68091;52.130;5.570;2023-07-29T10:16:41;20.80;99.90
78550;DHT22;68091;52.130;5.570;2023-07-29T10:19:07;20.90;99.90
78550;DHT22;68091;52.130;5.570;2023-07-29T10:21:34;20.90;99.90
78550;DHT22;68091;52.130;5.570;2023-07-29T10:24:02;21.00;99.90
78550;DHT22;68091;52.130;5.570;2023-07-29T10:26:29;21.10;99.90
78550;DHT22;68091;52.130;5.570;2023-07-29T10:29:00;21.20;99.90
78550;DHT22;68091;52.130;5.570;2023-07-29T10:31:30;21.00;99.90
78550;DHT22;68091;52.130;5.570;2023-07-29T10:33:56;21.10;99.90
78550;DHT22;68091;52.130;5.570;2023-07-29T10:36:22;21.10;99.90
78550;DHT22;68091;52.130;5.570;2023-07-29T10:38:47;21.10;99.90
78550;DHT22;68091;52.130;5.570;2023-07-29T10:41:13;21.10;99.90
78550;DHT22;68091;52.130;5.570;2023-07-29T10:43:39;21.00;99.90
78550;DHT22;68091;52.130;5.570;2023-07-29T10:46:20;21.10;99.90
78550;DHT22;68091;52.130;5.570;2023-07-29T10:48:56;21.30;99.90
78550;DHT22;68091;52.130;5.570;2023-07-29T10:53:57;22.00;99.90
78550;DHT22;68091;52.130;5.570;2023-07-29T10:56:30;22.00;99.90
78550;DHT22;68091;52.130;5.570;2023-07-29T10:58:56;21.90;99.90
78550;DHT22;68091;52.130;5.570;2023-07-29T11:01:31;21.80;99.90
78550;DHT22;68091;52.130;5.570;2023-07-29T11:15:11;21.80;99.90
78550;DHT22;68091;52.130;5.570;2023-07-29T11:17:42;21.90;99.90
78550;DHT22;68091;52.130;5.570;2023-07-29T11:20:08;21.80;99.90
78550;DHT22;68091;52.130;5.570;2023-07-29T11:22:33;21.90;99.90
78550;DHT22;68091;52.130;5.570;2023-07-29T11:24:59;22.00;99.90
78550;DHT22;68091;52.130;5.570;2023-07-29T11:27:25;21.90;99.90
78550;DHT22;68091;52.130;5.570;2023-07-29T11:29:50;21.90;99.90
78550;DHT22;68091;52.130;5.570;2023-07-29T11:32:21;21.60;99.90
78550;DHT22;68091;52.130;5.570;2023-07-29T11:34:47;21.40;99.90
78550;DHT22;68091;52.130;5.570;2023-07-29T11:37:12;21.40;99.90
78550;DHT22;68091;52.130;5.570;2023-07-29T11:39:41;21.30;99.90
78550;DHT22;68091;52.130;5.570;2023-07-29T11:42:10;21.00;99.90
78550;DHT22;68091;52.130;5.570;2023-07-29T11:44:36;20.90;99.90
78550;DHT22;68091;52.130;5.570;2023-07-29T11:47:01;20.80;99.90
78550;DHT22;68091;52.130;5.570;2023-07-29T11:49:27;20.60;99.90
78550;DHT22;68091;52.130;5.570;2023-07-29T11:51:53;20.60;99.90
78550;DHT22;68091;52.130;5.570;2023-07-29T11:54:18;20.50;99.90
78550;DHT22;68091;52.130;5.570;2023-07-29T11:56:47;20.30;99.90
78550;DHT22;68091;52.130;5.570;2023-07-29T11:59:13;20.10;99.90
78550;DHT22;68091;52.130;5.570;2023-07-29T12:01:39;20.00;99.90
78550;DHT22;68091;52.130;5.570;2023-07-29T12:04:05;20.00;99.90
78550;DHT22;68091;52.130;5.570;2023-07-29T12:06:31;20.00;99.90
78550;DHT22;68091;52.130;5.570;2023-07-29T12:08:56;20.00;99.90
78550;DHT22;68091;52.130;5.570;2023-07-29T12:11:22;20.10;99.90
78550;DHT22;68091;52.130;5.570;2023-07-29T12:13:48;20.20;99.90
78550;DHT22;68091;52.130;5.570;2023-07-29T12:16:17;20.70;99.90
78550;DHT22;68091;52.130;5.570;2023-07-29T12:18:43;21.10;99.90
78550;DHT22;68091;52.130;5.570;2023-07-29T12:21:13;21.00;99.90
78550;DHT22;68091;52.130;5.570;2023-07-29T12:23:39;20.80;99.90
78550;DHT22;68091;52.130;5.570;2023-07-29T12:26:05;20.80;99.90
78550;DHT22;68091;52.130;5.570;2023-07-29T12:28:30;20.80;99.90
78550;DHT22;68091;52.130;5.570;2023-07-29T12:30:56;20.90;99.90
78550;DHT22;68091;52.130;5.570;2023-07-29T12:33:32;21.10;99.90
78550;DHT22;68091;52.130;5.570;2023-07-29T12:35:58;21.30;99.90
78550;DHT22;68091;52.130;5.570;2023-07-29T12:38:27;21.60;99.90
78550;DHT22;68091;52.130;5.570;2023-07-29T12:40:52;21.80;99.90
78550;DHT22;68091;52.130;5.570;2023-07-29T12:43:18;22.10;99.90
78550;DHT22;68091;52.130;5.570;2023-07-29T12:45:44;22.20;99.90
78550;DHT22;68091;52.130;5.570;2023-07-29T12:48:09;22.20;99.90
78550;DHT22;68091;52.130;5.570;2023-07-29T12:50:35;21.80;99.90
78550;DHT22;68091;52.130;5.570;2023-07-29T12:53:01;21.70;99.90
78550;DHT22;68091;52.130;5.570;2023-07-29T12:55:27;21.80;99.90
78550;DHT22;68091;52.130;5.570;2023-07-29T12:57:52;21.90;99.90
78550;DHT22;68091;52.130;5.570;2023-07-29T13:00:18;21.60;99.90
78550;DHT22;68091;52.130;5.570;2023-07-29T13:02:43;21.30;99.90
78550;DHT22;68091;52.130;5.570;2023-07-29T13:05:09;21.40;99.90
78550;DHT22;68091;52.130;5.570;2023-07-29T13:07:36;21.50;99.90
78550;DHT22;68091;52.130;5.570;2023-07-29T13:10:02;21.80;99.90
78550;DHT22;68091;52.130;5.570;2023-07-29T13:12:28;22.20;99.90
78550;DHT22;68091;52.130;5.570;2023-07-29T13:15:00;22.50;99.90
78550;DHT22;68091;52.130;5.570;2023-07-29T13:17:25;22.70;99.90
78550;DHT22;68091;52.130;5.570;2023-07-29T13:19:51;23.30;99.90
78550;DHT22;68091;52.130;5.570;2023-07-29T13:22:17;23.00;99.90
78550;DHT22;68091;52.130;5.570;2023-07-29T13:24:42;23.00;99.90
78550;DHT22;68091;52.130;5.570;2023-07-29T13:27:08;23.30;99.90
78550;DHT22;68091;52.130;5.570;2023-07-29T13:29:33;23.30;99.90
78550;DHT22;68091;52.130;5.570;2023-07-29T13:31:59;22.90;99.90
78550;DHT22;68091;52.130;5.570;2023-07-29T13:34:25;22.70;99.90
78550;DHT22;68091;52.130;5.570;2023-07-29T13:36:50;22.60;99.90
78550;DHT22;68091;52.130;5.570;2023-07-29T13:39:16;22.40;99.90
78550;DHT22;68091;52.130;5.570;2023-07-29T13:41:41;22.40;99.90
78550;DHT22;68091;52.130;5.570;2023-07-29T13:44:07;22.60;99.90
78550;DHT22;68091;52.130;5.570;2023-07-29T13:46:32;22.80;99.90
78550;DHT22;68091;52.130;5.570;2023-07-29T13:48:58;23.40;99.90
78550;DHT22;68091;52.130;5.570;2023-07-29T13:51:23;23.70;99.90
78550;DHT22;68091;52.130;5.570;2023-07-29T13:53:49;23.20;99.90
78550;DHT22;68091;52.130;5.570;2023-07-29T13:56:15;23.20;99.90
78550;DHT22;68091;52.130;5.570;2023-07-29T13:58:40;23.70;99.90
78550;DHT22;68091;52.130;5.570;2023-07-29T14:01:06;23.60;99.90
78550;DHT22;68091;52.130;5.570;2023-07-29T14:03:31;23.80;99.90
78550;DHT22;68091;52.130;5.570;2023-07-29T14:05:57;23.20;99.90
78550;DHT22;68091;52.130;5.570;2023-07-29T14:08:22;23.60;99.90
78550;DHT22;68091;52.130;5.570;2023-07-29T14:10:51;24.00;99.90
78550;DHT22;68091;52.130;5.570;2023-07-29T14:13:16;24.90;99.90
78550;DHT22;68091;52.130;5.570;2023-07-29T14:15:42;25.20;99.90
78550;DHT22;68091;52.130;5.570;2023-07-29T14:18:07;24.50;99.90
78550;DHT22;68091;52.130;5.570;2023-07-29T14:20:33;24.50;99.90
78550;DHT22;68091;52.130;5.570;2023-07-29T14:22:58;25.00;99.90
78550;DHT22;68091;52.130;5.570;2023-07-29T14:25:24;25.50;99.90
78550;DHT22;68091;52.130;5.570;2023-07-29T14:27:50;25.20;99.90
78550;DHT22;68091;52.130;5.570;2023-07-29T14:30:15;25.70;99.90
78550;DHT22;68091;52.130;5.570;2023-07-29T14:32:44;26.20;99.90
78550;DHT22;68091;52.130;5.570;2023-07-29T14:44:30;27.00;99.90
78550;DHT22;68091;52.130;5.570;2023-07-29T14:47:04;26.40;99.90
78550;DHT22;68091;52.130;5.570;2023-07-29T14:49:30;26.70;99.90
78550;DHT22;68091;52.130;5.570;2023-07-29T14:51:56;27.60;99.90
78550;DHT22;68091;52.130;5.570;2023-07-29T14:54:21;28.50;99.90
78550;DHT22;68091;52.130;5.570;2023-07-29T14:56:47;28.60;99.90
78550;DHT22;68091;52.130;5.570;2023-07-29T14:59:12;28.90;99.90
78550;DHT22;68091;52.130;5.570;2023-07-29T15:01:41;28.20;99.90
78550;DHT22;68091;52.130;5.570;2023-07-29T15:04:07;27.00;99.90
78550;DHT22;68091;52.130;5.570;2023-07-29T15:06:32;26.70;99.90
78550;DHT22;68091;52.130;5.570;2023-07-29T15:08:58;26.40;99.90
78550;DHT22;68091;52.130;5.570;2023-07-29T15:11:23;25.70;99.90
78550;DHT22;68091;52.130;5.570;2023-07-29T15:13:49;25.00;99.90
78550;DHT22;68091;52.130;5.570;2023-07-29T15:16:15;24.50;99.90
78550;DHT22;68091;52.130;5.570;2023-07-29T15:18:40;24.10;99.90
78550;DHT22;68091;52.130;5.570;2023-07-29T15:21:06;23.60;99.90
78550;DHT22;68091;52.130;5.570;2023-07-29T15:23:31;23.50;99.90
78550;DHT22;68091;52.130;5.570;2023-07-29T15:25:57;24.40;99.90
78550;DHT22;68091;52.130;5.570;2023-07-29T15:28:22;26.00;99.90
78550;DHT22;68091;52.130;5.570;2023-07-29T15:30:48;26.00;99.90
78550;DHT22;68091;52.130;5.570;2023-07-29T15:33:13;26.60;99.90
78550;DHT22;68091;52.130;5.570;2023-07-29T15:35:39;27.60;99.90
78550;DHT22;68091;52.130;5.570;2023-07-29T15:38:05;27.60;99.90
78550;DHT22;68091;52.130;5.570;2023-07-29T15:40:31;27.00;99.90
78550;DHT22;68091;52.130;5.570;2023-07-29T15:42:57;26.80;99.90
78550;DHT22;68091;52.130;5.570;2023-07-29T15:45:22;26.20;99.90
78550;DHT22;68091;52.130;5.570;2023-07-29T15:47:48;25.50;99.90
78550;DHT22;68091;52.130;5.570;2023-07-29T15:50:14;24.80;99.90